Latest Coastal Weather Observations for Cape Borda

IDS60701

Issued at 1:45 pm CST Friday 25 April 2014 (issued every 10 minutes, with the page automatically refreshed every 10 minutes)

About coastal observations | Map of coastal stations | Coastal observations for SA | Marine services | Other Formats
Station Details ID: 022823 Name: CAPE BORDA Lat: -35.75 Lon: 136.60 Height: 158.0 m
Data from the previous 72 hours. | See also: Recent months at Cape Borda
Date/Time
CST
Temp

°C
Wind Pressure Rain
since 9am
mm
Weather Cloud Vis
km
Sea
Height
m
Swell
Dir
 
Speed
knots
Gust
knots
hPa Trend Height
m
Period
s
Dir
25/01:30pm 17.5 N 10 14 1011.4 - 0.0 - - - - - - -
25/01:00pm 17.7 N 11 18 1012.2 - 0.0 - - - - - - -
25/12:30pm 17.5 N 11 17 1012.6 - 0.0 - - - - - - -
25/12:00pm 17.3 N 14 19 1012.8 - 0.0 - - - - - - -
25/11:30am 17.3 NNE 11 15 1013.5 - 0.0 - - - - - - -
25/11:00am 16.8 NE 11 15 1013.8 - 0.0 - - - - - - -
25/10:30am 16.9 NE 11 16 1014.3 - 0.0 - - - - - - -
25/10:00am 16.7 NE 11 15 1014.6 - 0.0 - - - - - - -
25/09:30am 16.2 NE 11 15 1014.9 - 0.0 - - - - - - -
25/09:00am 15.8 NE 11 15 1015.2 F 0.0 Haze Cloudy 15 <0.5 5.2 10 SW
25/08:30am 15.3 NE 11 16 1015.6 - 0.0 - - - - - - -
25/08:00am 14.7 NE 11 14 1015.7 - 0.0 - - - - - - -
25/07:30am 13.8 NE 9 13 1015.9 - 0.0 - - - - - - -
25/07:00am 13.4 NE 10 12 1015.8 - 0.0 - - - - - - -
25/06:30am 12.8 ENE 9 12 1016.1 - 0.0 - - - - - - -
25/06:00am 12.7 ENE 9 13 1016.0 F 0.0 Fine Mostly clear 20 <0.5 3.6 10 SW
25/05:30am 12.4 ENE 9 13 1016.2 - 0.0 - - - - - - -
25/05:00am 12.4 ENE 9 12 1016.1 - 0.0 - - - - - - -
25/04:30am 12.5 ENE 11 15 1016.0 - 0.0 - - - - - - -
25/04:00am 12.3 ENE 11 15 1016.2 - 0.0 - - - - - - -
25/03:30am 12.1 ENE 11 15 1016.5 - 0.0 - - - - - - -
25/03:00am 11.4 ENE 10 14 1017.1 - 0.0 - - - - - - -
25/02:30am 9.5 ENE 9 12 1017.5 - 0.0 - - - - - - -
25/02:00am 8.2 E 9 11 1017.9 - 0.0 - - - - - - -
25/01:30am 8.2 E 10 11 1018.2 - 0.0 - - - - - - -
25/01:00am 9.1 E 9 13 1018.2 - 0.0 - - - - - - -
25/12:30am 9.0 E 9 11 1018.4 - 0.0 - - - - - - -
25/12:00am 9.4 E 10 13 1018.4 - 0.0 - - - - - - -
 
Date/Time
CST
Temp

°C
Wind Pressure Rain
since 9am
mm
Weather Cloud Vis
km
Sea
Height
m
Swell
Dir
 
Speed
knots
Gust
knots
hPa Trend Height
m
Period
s
Dir
24/11:30pm 9.4 E 9 13 1018.8 - 0.0 - - - - - - -
24/11:00pm 9.1 E 9 12 1019.3 - 0.0 - - - - - - -
24/10:30pm 8.8 ESE 8 10 1019.7 - 0.0 - - - - - - -
24/10:00pm 9.3 ESE 8 11 1019.7 - 0.0 - - - - - - -
24/09:30pm 9.8 ESE 9 11 1019.4 - 0.0 - - - - - - -
24/09:00pm 9.5 ESE 9 11 1019.5 - 0.0 - - - - - - -
24/08:30pm 9.9 ESE 10 12 1019.5 - 0.0 - - - - - - -
24/08:00pm 9.9 ESE 10 12 1019.3 - 0.0 - - - - - - -
24/07:30pm 10.2 SE 9 11 1019.2 - 0.0 - - - - - - -
24/07:00pm 10.8 SE 9 12 1019.1 - 0.0 - - - - - - -
24/06:30pm 11.3 SE 9 12 1018.8 - 0.0 - - - - - - -
24/06:00pm 12.5 SE 9 12 1018.5 - 0.0 - - - - - - -
24/05:30pm 14.1 SE 9 14 1018.4 - 0.0 - - - - - - -
24/05:00pm 15.8 SE 9 14 1018.3 - 0.0 - - - - - - -
24/04:30pm 16.5 NE 6 9 1018.3 - 0.0 - - - - - - -
24/04:00pm 17.0 NNE 7 9 1018.3 - 0.0 - - - - - - -
24/03:30pm 17.5 SE 4 6 1018.0 - 0.0 - - - - - - -
24/03:00pm 16.9 NNW 7 9 1018.0 F 0.0 Fine Mostly clear 15 <0.5 5.2 9 SW
24/02:30pm 17.0 NE 4 8 1018.2 - 0.0 - - - - - - -
24/02:00pm 17.1 N 4 8 1018.2 - 0.0 - - - - - - -
24/01:30pm 17.5 NNE 4 7 1018.6 - 0.0 - - - - - - -
24/01:00pm 17.4 ESE 4 8 1018.9 - 0.0 - - - - - - -
24/12:30pm 17.2 E 5 9 1019.2 - 0.0 - - - - - - -
24/12:00pm 16.8 S 6 8 1019.4 - 0.0 - - - - - - -
24/11:30am 16.3 SE 10 14 1019.6 - 0.0 - - - - - - -
24/11:00am 15.9 S 10 14 1019.6 - 0.0 - - - - - - -
24/10:30am 15.6 S 10 14 1019.5 - 0.0 - - - - - - -
24/10:00am 15.1 S 11 15 1019.4 - 0.0 - - - - - - -
24/09:30am 14.6 S 13 18 1019.2 - 0.0 - - - - - - -
24/09:00am 14.6 S 9 14 1019.0 R 3.6 Haze Mostly clear 15 <0.5 4.6 7 SW
24/08:30am 13.7 S 9 13 1018.7 - 3.6 - - - - - - -
24/08:00am 13.2 S 10 13 1018.2 - 3.6 - - - - - - -
24/07:30am 12.6 S 11 14 1017.7 - 3.6 - - - - - - -
24/07:00am 12.4 S 11 14 1017.2 - 3.6 - - - - - - -
24/06:30am 12.7 S 12 15 1016.9 - 3.6 - - - - - - -
24/06:00am 13.1 S 12 15 1016.5 R 3.6 Rain Mostly cloudy 5 <0.5 5.7 7 SW
24/05:30am 12.9 S 11 15 1016.0 - 3.4 - - - - - - -
24/05:00am 13.3 S 14 20 1015.7 - 3.2 - - - - - - -
24/04:30am 14.0 SSW 14 19 1015.4 - 3.2 - - - - - - -
24/04:00am 14.8 SW 13 17 1015.0 - 2.2 - - - - - - -
24/03:30am 14.9 SW 14 19 1014.8 - 2.2 - - - - - - -
24/03:00am 14.8 SW 13 19 1014.7 - 2.2 - - - - - - -
24/02:30am 14.0 SW 10 15 1014.9 - 2.2 - - - - - - -
24/02:00am 15.1 W 18 26 1014.8 - 1.8 - - - - - - -
24/01:44am 16.1 W 15 25 1014.8 - 1.8 - - - - - - -
24/01:30am 16.4 W 17 23 1014.7 - 1.8 - - - - - - -
24/01:00am 16.1 W 13 22 1014.6 - 1.8 - - - - - - -
24/12:30am 16.1 W 15 23 1014.6 - 1.8 - - - - - - -
24/12:00am 16.1 W 13 19 1014.4 - 1.8 - - - - - - -
 
Date/Time
CST
Temp

°C
Wind Pressure Rain
since 9am
mm
Weather Cloud Vis
km
Sea
Height
m
Swell
Dir
 
Speed
knots
Gust
knots
hPa Trend Height
m
Period
s
Dir
23/11:30pm 15.9 WNW 11 18 1014.8 - 1.8 - - - - - - -
23/11:00pm 15.5 W 12 17 1014.9 - 1.8 - - - - - - -
23/10:30pm 15.7 W 14 19 1015.1 - 1.8 - - - - - - -
23/10:00pm 15.5 W 13 17 1015.0 - 1.8 - - - - - - -
23/09:30pm 15.3 W 13 18 1014.9 - 1.8 - - - - - - -
23/09:00pm 15.3 W 15 21 1014.5 - 1.8 - - - - - - -
23/08:30pm 15.5 WNW 11 16 1014.6 - 1.8 - - - - - - -
23/08:00pm 15.2 WNW 11 15 1014.5 - 1.8 - - - - - - -
23/07:30pm 15.0 W 13 18 1014.2 - 1.8 - - - - - - -
23/07:00pm 14.9 NW 11 16 1014.3 - 1.8 - - - - - - -
23/06:30pm 15.1 NW 13 19 1014.0 - 1.8 - - - - - - -
23/06:00pm 14.5 - 10 15 1013.8 - 1.8 - - - - - - -
23/05:30pm 14.3 NW 13 15 1013.9 - 1.8 - - - - - - -
23/05:00pm 13.7 W 15 22 1014.0 - 1.8 - - - - - - -
23/04:30pm 16.3 NW 14 19 1013.8 - 0.0 - - - - - - -
23/04:00pm 16.6 NNW 10 14 1013.9 - 0.0 - - - - - - -
23/03:30pm 17.2 NNW 12 18 1013.9 - 0.0 - - - - - - -
23/03:00pm 17.5 NNW 12 16 1013.8 F 0.0 Fine Mostly cloudy 22 <0.5 3.9 7 SW
23/02:30pm 18.1 NNW 11 16 1013.9 - 0.0 - - - - - - -
23/02:00pm 18.0 NNW 10 15 1014.2 - 0.0 - - - - - - -
23/01:30pm 17.3 NNW 13 16 1014.6 - 0.0 - - - - - - -
23/01:00pm 18.3 NNW 12 16 1015.0 - 0.0 - - - - - - -
23/12:30pm 17.8 NNW 11 16 1015.5 - 0.0 - - - - - - -
23/12:00pm 17.5 NNW 11 16 1015.8 - 0.0 - - - - - - -
23/11:30am 18.5 NNW 11 16 1016.6 - 0.0 - - - - - - -
23/11:00am 17.0 NNW 12 15 1016.8 - 0.0 - - - - - - -
23/10:30am 17.3 NW 11 16 1017.2 - 0.0 - - - - - - -
23/10:00am 16.7 NNW 12 17 1017.5 - 0.0 - - - - - - -
23/09:30am 16.0 NW 12 16 1017.7 - 0.0 - - - - - - -
23/09:00am 16.1 NW 11 15 1017.7 F 0.0 Fine Partly cloudy 22 1 4.0 8 SW
23/08:30am 14.8 NW 10 15 1017.6 - 0.0 - - - - - - -
23/08:00am 14.5 NW 9 12 1017.5 - 0.0 - - - - - - -
23/07:30am 14.3 NNW 7 11 1017.2 - 0.0 - - - - - - -
23/07:00am 13.9 NNW 8 13 1017.0 - 0.0 - - - - - - -
23/06:30am 13.9 NNW 7 10 1016.9 - 0.0 - - - - - - -
23/06:00am 13.7 N 8 10 1016.7 F 0.0 Fine Partly cloudy 25 <0.1 5.8 9 SW
23/05:30am 13.6 N 7 11 1016.9 - 0.0 - - - - - - -
23/05:00am 13.4 N 7 11 1016.8 - 0.0 - - - - - - -
23/04:30am 13.0 N 7 9 1016.9 - 0.0 - - - - - - -
23/04:00am 12.2 NNE 4 5 1016.8 - 0.0 - - - - - - -
23/03:30am 11.8 NNE 4 6 1017.1 - 0.0 - - - - - - -
23/03:00am 11.7 N 5 6 1017.5 - 0.0 - - - - - - -
23/02:30am 11.5 N 6 7 1017.6 - 0.0 - - - - - - -
23/02:00am 10.8 NNE 6 7 1018.0 - 0.0 - - - - - - -
23/01:30am 11.0 NNE 5 6 1018.2 - 0.0 - - - - - - -
23/01:00am 10.9 ESE 4 4 1018.3 - 0.0 - - - - - - -
23/12:30am 10.4 ESE 3 4 1018.3 - 0.0 - - - - - - -
23/12:00am 10.2 ESE 5 6 1018.4 - 0.0 - - - - - - -
 
Date/Time
CST
Temp

°C
Wind Pressure Rain
since 9am
mm
Weather Cloud Vis
km
Sea
Height
m
Swell
Dir
 
Speed
knots
Gust
knots
hPa Trend Height
m
Period
s
Dir
22/11:30pm 10.3 SE 4 5 1018.7 - 0.0 - - - - - - -
22/11:00pm 10.3 ESE 5 6 1018.9 - 0.0 - - - - - - -
22/10:30pm 10.4 SE 6 6 1019.1 - 0.0 - - - - - - -
22/10:00pm 10.8 SE 6 6 1019.4 - 0.0 - - - - - - -
22/09:30pm 10.5 SE 6 6 1019.6 - 0.0 - - - - - - -
22/09:00pm 10.5 SE 6 7 1019.3 - 0.0 - - - - - - -
22/08:30pm 10.6 SE 7 8 1019.2 - 0.0 - - - - - - -
22/08:00pm 11.0 SSE 7 8 1019.1 - 0.0 - - - - - - -
22/07:30pm 11.6 SSE 6 7 1019.2 - 0.0 - - - - - - -
22/07:00pm 12.0 S 6 7 1019.1 - 0.0 - - - - - - -
22/06:30pm 12.4 S 6 7 1018.7 - 0.0 - - - - - - -
22/06:00pm 13.0 S 7 7 1018.4 - 0.0 - - - - - - -
22/05:30pm 14.0 S 6 7 1018.3 - 0.0 - - - - - - -
22/05:00pm 14.9 S 7 10 1018.2 - 0.0 - - - - - - -
22/04:30pm 15.5 SW 8 12 1018.1 - 0.0 - - - - - - -
22/04:00pm 16.5 SW 7 12 1018.0 - 0.0 - - - - - - -
22/03:30pm 15.5 SW 10 13 1018.0 - 0.0 - - - - - - -
22/03:00pm 16.9 SW 11 14 1017.7 R 0.0 Fine Partly cloudy 30 <0.5 3.9 8 SW
22/02:30pm 16.7 SW 12 15 1017.9 - 0.0 - - - - - - -
22/02:00pm 16.7 SW 11 16 1017.8 - 0.0 - - - - - - -

Other Formats:

Comma delimited format used in spreadsheet applications
http://www.bom.gov.au/fwo/IDS60701/IDS60701.95805.axf

JavaScript Object Notation format (JSON) in row-major order
http://www.bom.gov.au/fwo/IDS60701/IDS60701.95805.json